createdAt,value
2017-07-16T00:00:43.094Z,0
2017-07-16T00:01:42.442Z,0
2017-07-16T00:02:43.084Z,0
2017-07-16T00:03:42.744Z,0
2017-07-16T00:04:42.770Z,0
2017-07-16T00:05:42.737Z,0
2017-07-16T00:06:42.719Z,0
2017-07-16T00:07:42.381Z,0
2017-07-16T00:08:42.730Z,0
2017-07-16T00:09:42.697Z,0
2017-07-16T00:10:42.359Z,0
2017-07-16T00:11:42.679Z,0
2017-07-16T00:12:42.671Z,0
2017-07-16T00:13:42.665Z,0
2017-07-16T00:14:42.656Z,0
2017-07-16T00:15:42.666Z,0
2017-07-16T00:16:42.309Z,0
2017-07-16T00:17:42.303Z,0
2017-07-16T00:18:42.624Z,0
2017-07-16T00:19:42.307Z,0
2017-07-16T00:20:42.279Z,0
2017-07-16T00:21:42.278Z,0
2017-07-16T00:22:42.269Z,0
2017-07-16T00:23:42.937Z,0
2017-07-16T00:24:42.589Z,0
2017-07-16T00:25:42.609Z,0
2017-07-16T00:26:42.884Z,0
2017-07-16T00:27:42.564Z,0
2017-07-16T00:28:42.545Z,0
2017-07-16T00:29:42.555Z,0
2017-07-16T00:30:42.198Z,0
2017-07-16T00:31:42.519Z,0
2017-07-16T00:32:42.194Z,0
2017-07-16T00:33:42.512Z,0
2017-07-16T00:34:42.495Z,0
2017-07-16T00:35:42.510Z,0
2017-07-16T00:36:42.147Z,0
2017-07-16T00:37:42.468Z,0
2017-07-16T00:38:42.150Z,0
2017-07-16T00:39:42.121Z,0
2017-07-16T00:40:42.113Z,0
2017-07-16T00:41:42.125Z,0
2017-07-16T00:42:42.441Z,0
2017-07-16T00:43:42.417Z,0
2017-07-16T00:44:43.063Z,0
2017-07-16T00:45:42.069Z,0
2017-07-16T00:46:42.063Z,0
2017-07-16T00:47:42.078Z,0
2017-07-16T00:48:42.086Z,0
2017-07-16T00:49:42.042Z,0
2017-07-16T00:50:42.358Z,0
2017-07-16T00:51:42.355Z,0
2017-07-16T00:52:42.689Z,0
2017-07-16T00:53:42.681Z,0
2017-07-16T00:54:42.350Z,0
2017-07-16T00:55:43.466Z,0
2017-07-16T00:56:42.646Z,0
2017-07-16T00:57:42.329Z,0
2017-07-16T00:58:41.968Z,0
2017-07-16T00:59:42.304Z,0
2017-07-16T01:00:42.283Z,0
2017-07-16T01:01:41.951Z,0
2017-07-16T01:02:41.955Z,0
2017-07-16T01:03:42.262Z,0
2017-07-16T01:04:41.922Z,0
2017-07-16T01:05:42.250Z,0
2017-07-16T01:06:42.237Z,0
2017-07-16T01:07:41.898Z,0
2017-07-16T01:08:41.891Z,0
2017-07-16T01:09:41.885Z,0
2017-07-16T01:10:41.911Z,0
2017-07-16T01:11:42.203Z,0
2017-07-16T01:12:41.861Z,0
2017-07-16T01:13:42.544Z,0
2017-07-16T01:14:42.190Z,0
2017-07-16T01:15:41.835Z,0
2017-07-16T01:16:42.166Z,0
2017-07-16T01:17:42.185Z,0
2017-07-16T01:18:42.137Z,0
2017-07-16T01:19:42.132Z,0
2017-07-16T01:20:42.453Z,0
2017-07-16T01:21:41.786Z,0
2017-07-16T01:22:42.113Z,0
2017-07-16T01:23:42.434Z,0
2017-07-16T01:24:42.431Z,0
2017-07-16T01:25:41.794Z,0
2017-07-16T01:26:41.754Z,0
2017-07-16T01:27:41.741Z,0
2017-07-16T01:28:42.730Z,0
2017-07-16T01:29:42.054Z,0
2017-07-16T01:30:41.713Z,0
2017-07-16T01:31:42.042Z,0
2017-07-16T01:32:42.050Z,0
2017-07-16T01:33:42.350Z,0
2017-07-16T01:34:42.007Z,0
2017-07-16T01:35:42.020Z,0
2017-07-16T01:36:41.997Z,0
2017-07-16T01:37:41.658Z,0
2017-07-16T01:38:41.642Z,0
2017-07-16T01:39:41.636Z,0
2017-07-16T01:40:41.971Z,0
2017-07-16T01:41:41.637Z,0
2017-07-16T01:42:41.940Z,0
2017-07-16T01:43:41.925Z,0
2017-07-16T01:44:41.595Z,0
2017-07-16T01:45:42.260Z,0
2017-07-16T01:46:42.271Z,0
2017-07-16T01:47:41.766Z,0
2017-07-16T01:48:41.557Z,0
2017-07-16T01:49:41.559Z,0
2017-07-16T01:50:41.889Z,0
2017-07-16T01:51:41.856Z,0
2017-07-16T01:52:41.520Z,0
2017-07-16T01:53:42.165Z,0
2017-07-16T01:54:41.850Z,0
2017-07-16T01:55:41.818Z,0
2017-07-16T01:56:42.151Z,0
2017-07-16T01:57:41.821Z,0
2017-07-16T01:58:41.804Z,0
2017-07-16T01:59:41.472Z,0
2017-07-16T02:00:41.446Z,0
2017-07-16T02:01:42.096Z,0
2017-07-16T02:02:42.090Z,0
2017-07-16T02:03:42.418Z,0
2017-07-16T02:04:41.751Z,0
2017-07-16T02:05:41.945Z,0
2017-07-16T02:06:41.739Z,0
2017-07-16T02:07:41.383Z,0
2017-07-16T02:08:42.053Z,0
2017-07-16T02:09:41.699Z,0
2017-07-16T02:10:41.377Z,0
2017-07-16T02:11:41.674Z,0
2017-07-16T02:12:41.685Z,0
2017-07-16T02:13:41.999Z,0
2017-07-16T02:14:41.669Z,0
2017-07-16T02:15:41.654Z,0
2017-07-16T02:16:41.300Z,0
2017-07-16T02:17:41.950Z,0
2017-07-16T02:18:41.959Z,0
2017-07-16T02:19:41.924Z,0
2017-07-16T02:20:41.266Z,0
2017-07-16T02:21:41.604Z,0
2017-07-16T02:22:41.911Z,0
2017-07-16T02:23:41.268Z,0
2017-07-16T02:24:42.223Z,0
2017-07-16T02:25:41.546Z,0
2017-07-16T02:26:41.535Z,0
2017-07-16T02:27:41.205Z,0
2017-07-16T02:28:41.224Z,0
2017-07-16T02:29:41.517Z,0
2017-07-16T02:30:41.822Z,0
2017-07-16T02:31:41.503Z,0
2017-07-16T02:32:41.186Z,0
2017-07-16T02:33:41.800Z,0
2017-07-16T02:34:41.139Z,0
2017-07-16T02:35:41.123Z,4
2017-07-16T02:36:41.449Z,4
2017-07-16T02:37:41.432Z,0
2017-07-16T02:38:42.082Z,0
2017-07-16T02:39:41.084Z,4
2017-07-16T02:40:41.400Z,4
2017-07-16T02:41:41.723Z,4
2017-07-16T02:42:41.057Z,4
2017-07-16T02:43:41.070Z,8
2017-07-16T02:44:41.366Z,4
2017-07-16T02:45:41.351Z,4
2017-07-16T02:46:41.348Z,8
2017-07-16T02:47:41.679Z,8
2017-07-16T02:48:41.658Z,8
2017-07-16T02:49:40.989Z,8
2017-07-16T02:50:40.980Z,12
2017-07-16T02:51:41.307Z,12
2017-07-16T02:52:41.333Z,16
2017-07-16T02:53:41.612Z,16
2017-07-16T02:54:40.945Z,20
2017-07-16T02:55:41.480Z,24
2017-07-16T02:56:41.256Z,24
2017-07-16T02:57:41.583Z,28
2017-07-16T02:58:41.237Z,32
2017-07-16T02:59:40.942Z,36
2017-07-16T03:00:41.217Z,40
2017-07-16T03:01:41.205Z,48
2017-07-16T03:02:41.523Z,52
2017-07-16T03:03:40.857Z,60
2017-07-16T03:04:40.844Z,68
2017-07-16T03:05:40.856Z,72
2017-07-16T03:06:41.163Z,84
2017-07-16T03:07:40.843Z,92
2017-07-16T03:08:40.810Z,96
2017-07-16T03:09:40.815Z,112
2017-07-16T03:10:41.783Z,116
2017-07-16T03:11:40.779Z,128
2017-07-16T03:12:40.773Z,144
2017-07-16T03:13:41.099Z,156
2017-07-16T03:14:40.752Z,168
2017-07-16T03:15:40.773Z,180
2017-07-16T03:16:41.061Z,196
2017-07-16T03:17:40.723Z,212
2017-07-16T03:18:41.371Z,228
2017-07-16T03:19:41.054Z,244
2017-07-16T03:20:40.706Z,260
2017-07-16T03:21:40.685Z,280
2017-07-16T03:22:40.683Z,304
2017-07-16T03:23:40.996Z,320
2017-07-16T03:24:40.669Z,344
2017-07-16T03:25:40.663Z,364
2017-07-16T03:26:41.333Z,388
2017-07-16T03:27:41.631Z,408
2017-07-16T03:28:40.618Z,436
2017-07-16T03:29:41.264Z,460
2017-07-16T03:30:40.944Z,484
2017-07-16T03:31:40.914Z,512
2017-07-16T03:32:40.572Z,536
2017-07-16T03:33:40.565Z,564
2017-07-16T03:34:40.561Z,592
2017-07-16T03:35:40.908Z,616
2017-07-16T03:36:40.535Z,644
2017-07-16T03:37:41.524Z,668
2017-07-16T03:38:40.844Z,700
2017-07-16T03:39:41.175Z,724
2017-07-16T03:40:40.529Z,752
2017-07-16T03:41:41.157Z,784
2017-07-16T03:42:40.806Z,812
2017-07-16T03:43:41.159Z,844
2017-07-16T03:44:41.450Z,872
2017-07-16T03:45:40.780Z,904
2017-07-16T03:46:41.114Z,936
2017-07-16T03:47:40.771Z,968
2017-07-16T03:48:40.746Z,1000
2017-07-16T03:49:40.740Z,1028
2017-07-16T03:50:40.768Z,1048
2017-07-16T03:51:40.394Z,1076
2017-07-16T03:52:40.707Z,1108
2017-07-16T03:53:40.709Z,1136
2017-07-16T03:54:41.043Z,1160
2017-07-16T03:55:40.359Z,1180
2017-07-16T03:56:40.675Z,1192
2017-07-16T03:57:40.663Z,1208
2017-07-16T03:58:41.306Z,1220
2017-07-16T03:59:40.334Z,1236
2017-07-16T04:00:40.310Z,1248
2017-07-16T04:01:40.627Z,1268
2017-07-16T04:02:40.615Z,1288
2017-07-16T04:03:40.636Z,1296
2017-07-16T04:04:40.615Z,1300
2017-07-16T04:05:40.918Z,1304
2017-07-16T04:06:40.266Z,1316
2017-07-16T04:07:40.567Z,1332
2017-07-16T04:08:40.229Z,1332
2017-07-16T04:09:40.420Z,1340
2017-07-16T04:10:40.226Z,1316
2017-07-16T04:11:40.532Z,1284
2017-07-16T04:12:40.190Z,1260
2017-07-16T04:13:40.185Z,1236
2017-07-16T04:14:40.499Z,1224
2017-07-16T04:15:40.162Z,1224
2017-07-16T04:16:40.829Z,1240
2017-07-16T04:17:40.143Z,1252
2017-07-16T04:18:40.788Z,1272
2017-07-16T04:19:40.457Z,1288
2017-07-16T04:20:40.130Z,1296
2017-07-16T04:21:40.434Z,1312
2017-07-16T04:22:40.092Z,1336
2017-07-16T04:23:40.433Z,1360
2017-07-16T04:24:40.415Z,1372
2017-07-16T04:25:40.066Z,1392
2017-07-16T04:26:40.408Z,1416
2017-07-16T04:27:40.048Z,1432
2017-07-16T04:28:40.696Z,1440
2017-07-16T04:29:40.714Z,1432
2017-07-16T04:30:40.374Z,1428
2017-07-16T04:31:40.008Z,1428
2017-07-16T04:32:40.331Z,1428
2017-07-16T04:33:39.993Z,1424
2017-07-16T04:34:40.310Z,1424
2017-07-16T04:35:40.319Z,1432
2017-07-16T04:36:40.292Z,1436
2017-07-16T04:37:39.961Z,1444
2017-07-16T04:38:40.283Z,1460
2017-07-16T04:39:39.949Z,1476
2017-07-16T04:40:40.581Z,1496
2017-07-16T04:41:40.254Z,1520
2017-07-16T04:42:40.272Z,1544
2017-07-16T04:43:39.909Z,1580
2017-07-16T04:44:40.236Z,1620
2017-07-16T04:45:40.201Z,1656
2017-07-16T04:46:40.204Z,1684
2017-07-16T04:47:39.861Z,1728
2017-07-16T04:48:40.172Z,1780
2017-07-16T04:49:40.188Z,1836
2017-07-16T04:50:40.173Z,1896
2017-07-16T04:51:39.858Z,1964
2017-07-16T04:52:39.824Z,2012
2017-07-16T04:53:40.458Z,2084
2017-07-16T04:54:39.806Z,2196
2017-07-16T04:55:40.109Z,2300
2017-07-16T04:56:39.775Z,2408
2017-07-16T04:57:40.794Z,2604
2017-07-16T04:58:40.104Z,2820
2017-07-16T04:59:40.073Z,2948
2017-07-16T05:00:40.076Z,3080
2017-07-16T05:01:40.401Z,3192
2017-07-16T05:02:40.045Z,3372
2017-07-16T05:03:39.725Z,3516
2017-07-16T05:04:40.377Z,3600
2017-07-16T05:05:40.023Z,3740
2017-07-16T05:06:39.693Z,3856
2017-07-16T05:07:40.016Z,3880
2017-07-16T05:08:40.011Z,3932
2017-07-16T05:09:40.002Z,3920
2017-07-16T05:10:40.315Z,3776
2017-07-16T05:11:39.963Z,3548
2017-07-16T05:12:39.626Z,3340
2017-07-16T05:13:39.946Z,3192
2017-07-16T05:14:39.941Z,3060
2017-07-16T05:15:39.965Z,2968
2017-07-16T05:16:40.274Z,2924
2017-07-16T05:17:40.251Z,2920
2017-07-16T05:18:39.901Z,2932
2017-07-16T05:19:39.932Z,2944
2017-07-16T05:20:40.213Z,2956
2017-07-16T05:21:39.901Z,2968
2017-07-16T05:22:39.870Z,2976
2017-07-16T05:23:40.192Z,2996
2017-07-16T05:24:39.630Z,3012
2017-07-16T05:25:39.514Z,3048
2017-07-16T05:26:40.163Z,3104
2017-07-16T05:27:39.829Z,3156
2017-07-16T05:28:39.504Z,3204
2017-07-16T05:29:39.808Z,3180
2017-07-16T05:30:39.799Z,3096
2017-07-16T05:31:39.462Z,3104
2017-07-16T05:32:39.811Z,3128
2017-07-16T05:33:39.797Z,3148
2017-07-16T05:34:39.435Z,3184
2017-07-16T05:35:39.762Z,3200
2017-07-16T05:36:39.754Z,3216
2017-07-16T05:37:39.759Z,3244
2017-07-16T05:38:40.070Z,3248
2017-07-16T05:39:39.397Z,3256
2017-07-16T05:40:39.393Z,3280
2017-07-16T05:41:39.397Z,3316
2017-07-16T05:42:39.702Z,3372
2017-07-16T05:43:39.693Z,3360
2017-07-16T05:44:39.381Z,3420
2017-07-16T05:45:39.681Z,3456
2017-07-16T05:46:39.675Z,3484
2017-07-16T05:47:39.996Z,3556
2017-07-16T05:48:39.350Z,3644
2017-07-16T05:49:39.657Z,3812
2017-07-16T05:50:39.639Z,3800
2017-07-16T05:51:39.637Z,3676
2017-07-16T05:52:39.295Z,3676
2017-07-16T05:53:39.316Z,3504
2017-07-16T05:54:39.946Z,3456
2017-07-16T05:55:39.932Z,3440
2017-07-16T05:56:39.615Z,3436
2017-07-16T05:57:39.586Z,3412
2017-07-16T05:58:39.248Z,3388
2017-07-16T05:59:39.904Z,3404
2017-07-16T06:00:39.572Z,3464
2017-07-16T06:01:39.899Z,3568
2017-07-16T06:02:39.587Z,3660
2017-07-16T06:03:39.547Z,3648
2017-07-16T06:04:39.534Z,3704
2017-07-16T06:05:40.187Z,3784
2017-07-16T06:06:39.192Z,3924
2017-07-16T06:07:39.204Z,4120
2017-07-16T06:08:39.508Z,4328
2017-07-16T06:09:39.172Z,4528
2017-07-16T06:10:39.518Z,4748
2017-07-16T06:11:39.496Z,4996
2017-07-16T06:12:39.805Z,5264
2017-07-16T06:13:39.489Z,5520
2017-07-16T06:14:39.144Z,5640
2017-07-16T06:15:39.463Z,5656
2017-07-16T06:16:39.785Z,5776
2017-07-16T06:17:40.100Z,5896
2017-07-16T06:18:39.113Z,5976
2017-07-16T06:19:40.093Z,5944
2017-07-16T06:20:39.444Z,5720
2017-07-16T06:21:39.440Z,5624
2017-07-16T06:22:39.415Z,5564
2017-07-16T06:23:39.077Z,5540
2017-07-16T06:24:39.085Z,5788
2017-07-16T06:25:39.063Z,5824
2017-07-16T06:26:39.388Z,5488
2017-07-16T06:27:40.043Z,5400
2017-07-16T06:28:39.060Z,5412
2017-07-16T06:29:39.054Z,5320
2017-07-16T06:30:39.042Z,5108
2017-07-16T06:31:39.029Z,4928
2017-07-16T06:32:39.042Z,4936
2017-07-16T06:33:39.351Z,5308
2017-07-16T06:34:39.340Z,5964
2017-07-16T06:35:39.339Z,6784
2017-07-16T06:36:39.349Z,7076
2017-07-16T06:37:39.369Z,7288
2017-07-16T06:38:39.015Z,7860
2017-07-16T06:39:39.002Z,7700
2017-07-16T06:40:38.979Z,8340
2017-07-16T06:41:39.308Z,8540
2017-07-16T06:42:39.628Z,11856
2017-07-16T06:43:39.342Z,18272
2017-07-16T06:44:39.621Z,25056
2017-07-16T06:45:40.088Z,30112
2017-07-16T06:46:39.641Z,38560
2017-07-16T06:47:39.268Z,36544
2017-07-16T06:48:39.287Z,33536
2017-07-16T06:49:39.922Z,44800
2017-07-16T06:50:38.941Z,47520
2017-07-16T06:51:38.926Z,41728
2017-07-16T06:52:38.926Z,37120
2017-07-16T06:53:38.920Z,31584
2017-07-16T06:54:38.926Z,35520
2017-07-16T06:55:39.245Z,30912
2017-07-16T06:56:39.243Z,32320
2017-07-16T06:57:39.259Z,31040
2017-07-16T06:58:38.932Z,39968
2017-07-16T06:59:39.242Z,39296
2017-07-16T07:00:40.093Z,31968
2017-07-16T07:01:39.232Z,32160
2017-07-16T07:02:39.280Z,35424
2017-07-16T07:03:38.927Z,39456
2017-07-16T07:04:39.456Z,31520
2017-07-16T07:05:38.905Z,34720
2017-07-16T07:06:39.229Z,38880
2017-07-16T07:07:39.570Z,42592
2017-07-16T07:08:39.256Z,40256
2017-07-16T07:09:38.902Z,43648
2017-07-16T07:10:39.231Z,45632
2017-07-16T07:11:38.927Z,45632
2017-07-16T07:12:39.598Z,33472
2017-07-16T07:13:39.585Z,39744
2017-07-16T07:14:38.923Z,39968
2017-07-16T07:15:39.651Z,40128
2017-07-16T07:16:39.240Z,50272
2017-07-16T07:17:38.913Z,43648
2017-07-16T07:18:39.240Z,38848
2017-07-16T07:19:38.913Z,31680
2017-07-16T07:20:39.577Z,40064
2017-07-16T07:21:39.249Z,37632
2017-07-16T07:22:39.248Z,51200
2017-07-16T07:23:39.613Z,35712
2017-07-16T07:24:39.267Z,35104
2017-07-16T07:25:39.266Z,37408
2017-07-16T07:26:39.273Z,54304
2017-07-16T07:27:39.270Z,49536
2017-07-16T07:28:39.283Z,34752
2017-07-16T07:29:39.618Z,36896
2017-07-16T07:30:38.942Z,34816
2017-07-16T07:31:39.600Z,37600
2017-07-16T07:32:38.945Z,37472
2017-07-16T07:33:39.282Z,47488
2017-07-16T07:34:39.611Z,53056
2017-07-16T07:35:39.279Z,53632
2017-07-16T07:36:39.626Z,51296
2017-07-16T07:37:39.638Z,52672
2017-07-16T07:38:39.618Z,43328
2017-07-16T07:39:38.976Z,45856
2017-07-16T07:40:39.309Z,52672
2017-07-16T07:41:38.977Z,43680
2017-07-16T07:42:38.977Z,46656
2017-07-16T07:43:39.657Z,37984
2017-07-16T07:44:39.650Z,38496
2017-07-16T07:45:39.335Z,57216
2017-07-16T07:46:39.322Z,52384
2017-07-16T07:47:39.327Z,48896
2017-07-16T07:48:39.362Z,66944
2017-07-16T07:49:39.669Z,49728
2017-07-16T07:50:39.333Z,37984
2017-07-16T07:51:39.715Z,8736
2017-07-16T07:52:39.018Z,10576
2017-07-16T07:53:39.358Z,12812
2017-07-16T07:54:39.690Z,11316
2017-07-16T07:55:39.076Z,10260
2017-07-16T07:56:39.368Z,9712
2017-07-16T07:57:39.703Z,9508
2017-07-16T07:58:39.370Z,9136
2017-07-16T07:59:39.389Z,8420
2017-07-16T08:00:39.066Z,9320
2017-07-16T08:01:39.379Z,7732
2017-07-16T08:02:39.440Z,6892
2017-07-16T08:03:39.388Z,6164
2017-07-16T08:04:39.063Z,5608
2017-07-16T08:05:39.084Z,5340
2017-07-16T08:06:39.404Z,5100
2017-07-16T08:07:40.057Z,4936
2017-07-16T08:08:39.411Z,4896
2017-07-16T08:09:39.737Z,4812
2017-07-16T08:10:39.083Z,4768
2017-07-16T08:11:39.423Z,4844
2017-07-16T08:12:39.416Z,4948
2017-07-16T08:13:39.091Z,4932
2017-07-16T08:14:39.623Z,4776
2017-07-16T08:15:40.100Z,4604
2017-07-16T08:16:39.434Z,4616
2017-07-16T08:17:39.760Z,4964
2017-07-16T08:18:39.436Z,5624
2017-07-16T08:19:39.441Z,5820
2017-07-16T08:20:39.500Z,5252
2017-07-16T08:21:39.440Z,4748
2017-07-16T08:22:39.115Z,4812
2017-07-16T08:23:39.771Z,6944
2017-07-16T08:24:39.180Z,8480
2017-07-16T08:25:39.121Z,8812
2017-07-16T08:26:39.127Z,7780
2017-07-16T08:27:39.458Z,6756
2017-07-16T08:28:39.142Z,5892
2017-07-16T08:29:39.799Z,5424
2017-07-16T08:30:39.804Z,5144
2017-07-16T08:31:39.163Z,5296
2017-07-16T08:32:39.160Z,5572
2017-07-16T08:33:39.131Z,6576
2017-07-16T08:34:39.795Z,6972
2017-07-16T08:35:39.489Z,9036
2017-07-16T08:36:39.137Z,10648
2017-07-16T08:37:39.474Z,10676
2017-07-16T08:38:39.467Z,10496
2017-07-16T08:39:39.818Z,9512
2017-07-16T08:40:39.141Z,9400
2017-07-16T08:41:39.524Z,9408
2017-07-16T08:42:39.495Z,9432
2017-07-16T08:43:39.802Z,8236
2017-07-16T08:44:39.165Z,7448
2017-07-16T08:45:39.850Z,7836
2017-07-16T08:46:39.142Z,7268
2017-07-16T08:47:39.815Z,7084
2017-07-16T08:48:39.499Z,8280
2017-07-16T08:49:39.488Z,9680
2017-07-16T08:50:39.512Z,10232
2017-07-16T08:51:39.157Z,9520
2017-07-16T08:52:39.806Z,7168
2017-07-16T08:53:39.144Z,6044
2017-07-16T08:54:39.831Z,6412
2017-07-16T08:55:39.815Z,7168
2017-07-16T08:56:39.155Z,6968
2017-07-16T08:57:39.489Z,6716
2017-07-16T08:58:39.498Z,6544
2017-07-16T08:59:39.482Z,6456
2017-07-16T09:00:39.471Z,6420
2017-07-16T09:01:39.808Z,6628
2017-07-16T09:02:39.163Z,6344
2017-07-16T09:03:39.480Z,6616
2017-07-16T09:04:39.484Z,6752
2017-07-16T09:05:39.809Z,6808
2017-07-16T09:06:39.157Z,7096
2017-07-16T09:07:39.478Z,7264
2017-07-16T09:08:39.166Z,7552
2017-07-16T09:09:39.821Z,7648
2017-07-16T09:10:39.149Z,8072
2017-07-16T09:11:39.146Z,8604
2017-07-16T09:12:39.498Z,8816
2017-07-16T09:13:40.136Z,8348
2017-07-16T09:14:39.813Z,7592
2017-07-16T09:15:39.476Z,7088
2017-07-16T09:16:39.484Z,6980
2017-07-16T09:17:39.497Z,6860
2017-07-16T09:18:39.804Z,6844
2017-07-16T09:19:39.854Z,6800
2017-07-16T09:20:39.485Z,6684
2017-07-16T09:21:39.144Z,6380
2017-07-16T09:22:39.769Z,6004
2017-07-16T09:23:39.924Z,5344
2017-07-16T09:24:39.474Z,5768
2017-07-16T09:25:39.488Z,5764
2017-07-16T09:26:39.143Z,5584
2017-07-16T09:27:39.477Z,5496
2017-07-16T09:28:39.484Z,5584
2017-07-16T09:29:39.471Z,5824
2017-07-16T09:30:39.164Z,5800
2017-07-16T09:31:39.472Z,5348
2017-07-16T09:32:39.470Z,4776
2017-07-16T09:33:39.879Z,4532
2017-07-16T09:34:39.851Z,4452
2017-07-16T09:35:39.627Z,4516
2017-07-16T09:36:39.327Z,4660
2017-07-16T09:37:39.469Z,4832
2017-07-16T09:38:39.673Z,4876
2017-07-16T09:39:39.639Z,4800
2017-07-16T09:40:40.372Z,4644
2017-07-16T09:41:40.287Z,4632
2017-07-16T09:42:40.026Z,4644
2017-07-16T09:43:39.610Z,4680
2017-07-16T09:44:39.510Z,4788
2017-07-16T09:45:40.318Z,4888
2017-07-16T09:46:40.463Z,5016
2017-07-16T09:47:40.892Z,5208
2017-07-16T09:48:40.392Z,5588
2017-07-16T09:49:40.001Z,6016
2017-07-16T09:50:40.216Z,6556
2017-07-16T09:51:40.065Z,7064
2017-07-16T09:52:40.286Z,7740
2017-07-16T09:53:39.420Z,8184
2017-07-16T09:54:39.468Z,8476
2017-07-16T09:55:39.491Z,8168
2017-07-16T09:56:39.163Z,8132
2017-07-16T09:57:39.807Z,8004
2017-07-16T09:58:39.810Z,7628
2017-07-16T09:59:39.161Z,7236
2017-07-16T10:00:40.011Z,7080
2017-07-16T10:01:39.188Z,7092
2017-07-16T10:02:39.586Z,7532
2017-07-16T10:03:39.922Z,7416
2017-07-16T10:04:39.910Z,8168
2017-07-16T10:05:39.852Z,8128
2017-07-16T10:06:39.249Z,8956
2017-07-16T10:07:39.233Z,9496
2017-07-16T10:08:39.305Z,10020
2017-07-16T10:09:39.195Z,9488
2017-07-16T10:10:39.828Z,9284
2017-07-16T10:11:39.575Z,9112
2017-07-16T10:12:39.766Z,8996
2017-07-16T10:13:39.243Z,8972
2017-07-16T10:14:39.573Z,9280
2017-07-16T10:15:39.813Z,9376
2017-07-16T10:16:39.148Z,9972
2017-07-16T10:17:39.488Z,10736
2017-07-16T10:18:39.147Z,11776
2017-07-16T10:19:39.150Z,12212
2017-07-16T10:20:39.808Z,12972
2017-07-16T10:21:39.478Z,13572
2017-07-16T10:22:39.155Z,14144
2017-07-16T10:23:40.144Z,14392
2017-07-16T10:24:40.251Z,12976
2017-07-16T10:25:39.149Z,12840
2017-07-16T10:26:39.500Z,13572
2017-07-16T10:27:39.498Z,13160
2017-07-16T10:28:39.151Z,12024
2017-07-16T10:29:39.488Z,11992
2017-07-16T10:30:39.810Z,13032
2017-07-16T10:31:39.506Z,14352
2017-07-16T10:32:39.812Z,15276
2017-07-16T10:33:39.497Z,14492
2017-07-16T10:34:39.497Z,14028
2017-07-16T10:35:39.154Z,12756
2017-07-16T10:36:39.155Z,11668
2017-07-16T10:37:39.503Z,9932
2017-07-16T10:38:39.486Z,8568
2017-07-16T10:39:39.493Z,8564
2017-07-16T10:40:39.160Z,8792
2017-07-16T10:41:39.159Z,8568
2017-07-16T10:42:40.158Z,8496
2017-07-16T10:43:39.817Z,8712
2017-07-16T10:44:39.164Z,9184
2017-07-16T10:45:39.515Z,10048
2017-07-16T10:46:39.187Z,11156
2017-07-16T10:47:39.502Z,11892
2017-07-16T10:48:39.495Z,12684
2017-07-16T10:49:39.511Z,12304
2017-07-16T10:50:39.175Z,12108
2017-07-16T10:51:39.496Z,11284
2017-07-16T10:52:39.498Z,9676
2017-07-16T10:53:39.516Z,9220
2017-07-16T10:54:39.830Z,10068
2017-07-16T10:55:39.517Z,9968
2017-07-16T10:56:39.173Z,9520
2017-07-16T10:57:39.870Z,9504
2017-07-16T10:58:39.845Z,10092
2017-07-16T10:59:39.503Z,10064
2017-07-16T11:00:39.850Z,10148
2017-07-16T11:01:39.853Z,11120
2017-07-16T11:02:39.178Z,11444
2017-07-16T11:03:39.504Z,11252
2017-07-16T11:04:39.511Z,10644
2017-07-16T11:05:39.512Z,9584
2017-07-16T11:06:39.517Z,8184
2017-07-16T11:07:39.206Z,7464
2017-07-16T11:08:39.187Z,7456
2017-07-16T11:09:39.191Z,7356
2017-07-16T11:10:39.183Z,7332
2017-07-16T11:11:39.188Z,7100
2017-07-16T11:12:39.520Z,7324
2017-07-16T11:13:39.522Z,8268
2017-07-16T11:14:39.517Z,9672
2017-07-16T11:15:39.517Z,10624
2017-07-16T11:16:39.517Z,11112
2017-07-16T11:17:39.197Z,12228
2017-07-16T11:18:39.197Z,14132
2017-07-16T11:19:39.848Z,15112
2017-07-16T11:20:39.189Z,15856
2017-07-16T11:21:39.192Z,15828
2017-07-16T11:22:39.845Z,15332
2017-07-16T11:23:39.534Z,14324
2017-07-16T11:24:39.192Z,14156
2017-07-16T11:25:39.527Z,14260
2017-07-16T11:26:39.521Z,13920
2017-07-16T11:27:39.532Z,13992
2017-07-16T11:28:39.868Z,14316
2017-07-16T11:29:39.864Z,14696
2017-07-16T11:30:39.214Z,14676
2017-07-16T11:31:39.885Z,13860
2017-07-16T11:32:39.875Z,13864
2017-07-16T11:33:39.546Z,13056
2017-07-16T11:34:40.194Z,12520
2017-07-16T11:35:39.194Z,12216
2017-07-16T11:36:39.212Z,12736
2017-07-16T11:37:39.225Z,14828
2017-07-16T11:38:39.532Z,15632
2017-07-16T11:39:39.873Z,16216
2017-07-16T11:40:39.530Z,17024
2017-07-16T11:41:39.868Z,18624
2017-07-16T11:42:39.534Z,19616
2017-07-16T11:43:39.863Z,20032
2017-07-16T11:44:39.538Z,19488
2017-07-16T11:45:39.886Z,19424
2017-07-16T11:46:39.862Z,19392
2017-07-16T11:47:39.548Z,19296
2017-07-16T11:48:39.872Z,18976
2017-07-16T11:49:39.568Z,18688
2017-07-16T11:50:39.889Z,18528
2017-07-16T11:51:39.565Z,18560
2017-07-16T11:52:39.245Z,18688
2017-07-16T11:53:40.209Z,18688
2017-07-16T11:54:39.228Z,18720
2017-07-16T11:55:39.550Z,18656
2017-07-16T11:56:39.550Z,18720
2017-07-16T11:57:39.905Z,18624
2017-07-16T11:58:39.579Z,17984
2017-07-16T11:59:39.243Z,17088
2017-07-16T12:00:39.232Z,16092
2017-07-16T12:01:39.913Z,15460
2017-07-16T12:02:39.562Z,14708
2017-07-16T12:03:39.917Z,14128
2017-07-16T12:04:39.578Z,13348
2017-07-16T12:05:39.243Z,12772
2017-07-16T12:06:39.974Z,12048
2017-07-16T12:07:39.925Z,10900
2017-07-16T12:08:39.272Z,9780
2017-07-16T12:09:39.247Z,8884
2017-07-16T12:10:39.250Z,8816
2017-07-16T12:11:39.251Z,8240
2017-07-16T12:12:39.253Z,7908
2017-07-16T12:13:39.607Z,8628
2017-07-16T12:14:39.588Z,9532
2017-07-16T12:15:39.589Z,10268
2017-07-16T12:16:39.618Z,10864
2017-07-16T12:17:39.258Z,10832
2017-07-16T12:18:39.925Z,10560
2017-07-16T12:19:39.266Z,10620
2017-07-16T12:20:40.269Z,11252
2017-07-16T12:21:39.595Z,11564
2017-07-16T12:22:39.274Z,11504
2017-07-16T12:23:39.596Z,11156
2017-07-16T12:24:39.272Z,11244
2017-07-16T12:25:39.602Z,12104
2017-07-16T12:26:39.927Z,12596
2017-07-16T12:27:39.930Z,11952
2017-07-16T12:28:39.598Z,11232
2017-07-16T12:29:39.933Z,11140
2017-07-16T12:30:39.304Z,10948
2017-07-16T12:31:39.607Z,11072
2017-07-16T12:32:39.622Z,11340
2017-07-16T12:33:39.288Z,11180
2017-07-16T12:34:39.283Z,11004
2017-07-16T12:35:39.623Z,10956
2017-07-16T12:36:39.280Z,11660
2017-07-16T12:37:39.612Z,12784
2017-07-16T12:38:39.617Z,12328
2017-07-16T12:39:39.635Z,12156
2017-07-16T12:40:39.969Z,12316
2017-07-16T12:41:39.948Z,12224
2017-07-16T12:42:39.651Z,12344
2017-07-16T12:43:39.632Z,12556
2017-07-16T12:44:39.319Z,13164
2017-07-16T12:45:39.634Z,13632
2017-07-16T12:46:39.966Z,14064
2017-07-16T12:47:39.647Z,14384
2017-07-16T12:48:39.635Z,14496
2017-07-16T12:49:40.306Z,14608
2017-07-16T12:50:39.300Z,14684
2017-07-16T12:51:39.966Z,14648
2017-07-16T12:52:39.647Z,14408
2017-07-16T12:53:39.962Z,13860
2017-07-16T12:54:39.315Z,12948
2017-07-16T12:55:40.306Z,11740
2017-07-16T12:56:39.974Z,10444
2017-07-16T12:57:39.318Z,9376
2017-07-16T12:58:39.662Z,8836
2017-07-16T12:59:39.670Z,8092
2017-07-16T13:00:39.337Z,7904
2017-07-16T13:01:39.316Z,7672
2017-07-16T13:02:40.341Z,8012
2017-07-16T13:03:40.000Z,8304
2017-07-16T13:04:39.662Z,8244
2017-07-16T13:05:39.330Z,8116
2017-07-16T13:06:39.996Z,8200
2017-07-16T13:07:40.049Z,8452
2017-07-16T13:08:39.327Z,8872
2017-07-16T13:09:40.010Z,9044
2017-07-16T13:10:39.346Z,8812
2017-07-16T13:11:39.673Z,8808
2017-07-16T13:12:39.670Z,9368
2017-07-16T13:13:39.663Z,10292
2017-07-16T13:14:39.689Z,10932
2017-07-16T13:15:39.341Z,11480
2017-07-16T13:16:39.344Z,12172
2017-07-16T13:17:40.007Z,11716
2017-07-16T13:18:40.007Z,11280
2017-07-16T13:19:39.684Z,10708
2017-07-16T13:20:39.365Z,10248
2017-07-16T13:21:40.009Z,10908
2017-07-16T13:22:40.354Z,12160
2017-07-16T13:23:39.358Z,12304
2017-07-16T13:24:39.707Z,12208
2017-07-16T13:25:39.707Z,11740
2017-07-16T13:26:40.022Z,11996
2017-07-16T13:27:39.690Z,12600
2017-07-16T13:28:39.730Z,13412
2017-07-16T13:29:39.695Z,14328
2017-07-16T13:30:39.367Z,14676